createdAt,value
2022-09-11T00:01:07.209Z,18.49
2022-09-11T00:03:34.475Z,18.47
2022-09-11T00:06:06.383Z,18.46
2022-09-11T00:08:33.482Z,18.43
2022-09-11T00:11:17.340Z,18.42
2022-09-11T00:13:45.515Z,18.40
2022-09-11T00:16:29.125Z,18.37
2022-09-11T00:18:58.288Z,18.36
2022-09-11T00:21:25.316Z,18.32
2022-09-11T00:23:51.827Z,18.27
2022-09-11T00:26:19.439Z,18.23
2022-09-11T00:28:46.930Z,18.21
2022-09-11T00:31:19.255Z,18.22
2022-09-11T00:33:46.150Z,18.22
2022-09-11T00:36:15.804Z,18.20
2022-09-11T00:38:42.898Z,18.17
2022-09-11T00:41:22.401Z,18.15
2022-09-11T00:44:02.753Z,18.12
2022-09-11T00:46:31.909Z,18.05
2022-09-11T00:49:00.413Z,18.01
2022-09-11T00:51:30.001Z,18.00
2022-09-11T00:53:57.744Z,17.92
2022-09-11T00:56:27.722Z,17.92
2022-09-11T00:58:54.870Z,17.90
2022-09-11T01:01:21.307Z,17.86
2022-09-11T01:03:47.918Z,17.86
2022-09-11T01:06:14.584Z,17.83
2022-09-11T01:08:40.966Z,17.81
2022-09-11T01:11:19.486Z,17.79
2022-09-11T01:14:04.189Z,17.75
2022-09-11T01:16:33.607Z,17.70
2022-09-11T01:19:06.637Z,17.65
2022-09-11T01:21:52.224Z,17.63
2022-09-11T01:24:28.487Z,17.62
2022-09-11T01:27:09.119Z,17.62
2022-09-11T01:29:50.634Z,17.60
2022-09-11T01:32:29.119Z,17.56
2022-09-11T01:35:02.780Z,17.50
2022-09-11T01:37:40.925Z,17.44
2022-09-11T01:40:15.229Z,17.45
2022-09-11T01:42:43.387Z,17.42
2022-09-11T01:45:10.486Z,17.43
2022-09-11T01:47:37.770Z,17.41
2022-09-11T01:50:09.358Z,17.38
2022-09-11T01:52:41.230Z,17.32
2022-09-11T01:55:15.747Z,17.32
2022-09-11T01:57:49.910Z,17.30
2022-09-11T02:00:16.626Z,17.29
2022-09-11T02:02:46.976Z,17.22
2022-09-11T02:05:16.776Z,17.23
2022-09-11T02:07:47.142Z,17.19
2022-09-11T02:10:18.424Z,17.18
2022-09-11T02:12:51.680Z,17.17
2022-09-11T02:15:18.809Z,17.17
2022-09-11T02:18:00.015Z,17.19
2022-09-11T02:20:26.415Z,17.19
2022-09-11T02:22:53.116Z,17.19
2022-09-11T02:25:19.555Z,17.18
2022-09-11T02:27:46.015Z,17.17
2022-09-11T02:30:14.046Z,17.19
2022-09-11T02:32:42.093Z,17.17
2022-09-11T02:35:09.250Z,17.16
2022-09-11T02:37:52.360Z,17.13
2022-09-11T02:40:31.959Z,17.12
2022-09-11T02:43:33.477Z,17.09
2022-09-11T02:46:17.794Z,17.03
2022-09-11T02:49:21.736Z,17.00
2022-09-11T02:52:01.057Z,16.95
2022-09-11T02:54:49.302Z,16.95
2022-09-11T02:57:29.103Z,16.84
2022-09-11T03:00:00.811Z,16.79
2022-09-11T03:02:29.423Z,16.72
2022-09-11T03:04:56.677Z,16.69
2022-09-11T03:07:25.252Z,16.65
2022-09-11T03:09:52.383Z,16.54
2022-09-11T03:12:19.172Z,16.51
2022-09-11T03:14:45.578Z,16.52
2022-09-11T03:17:11.958Z,16.46
2022-09-11T03:19:38.347Z,16.45
2022-09-11T03:22:04.806Z,16.41
2022-09-11T03:24:31.199Z,16.36
2022-09-11T03:26:57.606Z,16.39
2022-09-11T03:29:24.015Z,16.38
2022-09-11T03:31:51.373Z,16.39
2022-09-11T03:34:17.975Z,16.43
2022-09-11T03:36:44.390Z,16.42
2022-09-11T03:39:10.779Z,16.42
2022-09-11T03:41:37.330Z,16.40
2022-09-11T03:44:03.850Z,16.37
2022-09-11T03:46:30.395Z,16.35
2022-09-11T03:48:56.803Z,16.37
2022-09-11T03:51:23.186Z,16.30
2022-09-11T03:53:49.583Z,16.25
2022-09-11T03:56:16.017Z,16.24
2022-09-11T03:58:43.186Z,16.26
2022-09-11T04:01:15.480Z,16.26
2022-09-11T04:03:42.428Z,16.26
2022-09-11T04:06:10.026Z,16.25
2022-09-11T04:08:36.964Z,16.26
2022-09-11T04:11:05.081Z,16.24
2022-09-11T04:13:33.875Z,16.25
2022-09-11T04:16:03.021Z,16.25
2022-09-11T04:18:30.626Z,16.27
2022-09-11T04:20:57.114Z,16.26
2022-09-11T04:23:23.511Z,16.24
2022-09-11T04:25:49.922Z,16.18
2022-09-11T04:28:16.440Z,16.16
2022-09-11T04:30:42.821Z,16.22
2022-09-11T04:33:09.238Z,16.21
2022-09-11T04:35:40.017Z,16.27
2022-09-11T04:38:07.588Z,16.30
2022-09-11T04:40:34.812Z,16.32
2022-09-11T04:43:02.225Z,16.33
2022-09-11T04:45:33.259Z,16.34
2022-09-11T04:48:00.768Z,16.35
2022-09-11T04:50:28.609Z,16.34
2022-09-11T04:52:55.325Z,16.32
2022-09-11T04:55:21.805Z,16.33
2022-09-11T04:57:48.192Z,16.35
2022-09-11T05:00:15.115Z,16.32
2022-09-11T05:02:41.562Z,16.32
2022-09-11T05:05:09.210Z,16.20
2022-09-11T05:07:36.217Z,16.22
2022-09-11T05:10:03.016Z,16.26
2022-09-11T05:12:30.053Z,16.17
2022-09-11T05:14:56.731Z,16.17
2022-09-11T05:17:23.179Z,16.18
2022-09-11T05:19:49.583Z,16.20
2022-09-11T05:22:16.019Z,16.20
2022-09-11T05:24:42.409Z,16.20
2022-09-11T05:27:09.685Z,16.20
2022-09-11T05:29:36.105Z,16.21
2022-09-11T05:32:03.508Z,16.27
2022-09-11T05:34:30.029Z,16.27
2022-09-11T05:36:57.380Z,16.24
2022-09-11T05:39:24.375Z,16.24
2022-09-11T05:41:51.770Z,16.25
2022-09-11T05:44:18.659Z,16.30
2022-09-11T05:46:45.089Z,16.34
2022-09-11T05:49:11.694Z,16.37
2022-09-11T05:51:39.799Z,16.35
2022-09-11T05:54:06.203Z,16.37
2022-09-11T05:56:32.626Z,16.37
2022-09-11T05:58:59.017Z,16.42
2022-09-11T06:01:26.982Z,16.44
2022-09-11T06:03:54.073Z,16.48
2022-09-11T06:06:22.327Z,16.48
2022-09-11T06:08:49.969Z,16.51
2022-09-11T06:11:17.818Z,16.53
2022-09-11T06:13:46.364Z,16.53
2022-09-11T06:16:23.216Z,16.56
2022-09-11T06:18:51.101Z,16.60
2022-09-11T06:21:20.463Z,16.58
2022-09-11T06:23:48.252Z,16.64
2022-09-11T06:26:16.579Z,16.66
2022-09-11T06:28:43.397Z,16.68
2022-09-11T06:31:12.358Z,16.70
2022-09-11T06:33:40.492Z,16.66
2022-09-11T06:36:10.561Z,16.66
2022-09-11T06:38:38.225Z,16.68
2022-09-11T06:41:06.817Z,16.66
2022-09-11T06:43:33.320Z,16.68
2022-09-11T06:46:06.994Z,16.73
2022-09-11T06:48:33.793Z,16.73
2022-09-11T06:51:04.100Z,16.74
2022-09-11T06:53:30.507Z,16.76
2022-09-11T06:56:01.107Z,16.76
2022-09-11T06:58:29.187Z,16.76
2022-09-11T07:01:22.661Z,16.71
2022-09-11T07:03:50.775Z,16.75
2022-09-11T07:06:25.580Z,16.77
2022-09-11T07:09:02.442Z,16.78
2022-09-11T07:11:34.402Z,16.79
2022-09-11T07:14:02.625Z,16.78
2022-09-11T07:16:29.102Z,16.77
2022-09-11T07:18:55.584Z,16.74
2022-09-11T07:21:23.237Z,16.72
2022-09-11T07:23:51.625Z,16.79
2022-09-11T07:26:18.581Z,16.81
2022-09-11T07:28:44.965Z,16.87
2022-09-11T07:31:17.490Z,16.90
2022-09-11T07:33:50.874Z,16.88
2022-09-11T07:36:22.102Z,16.88
2022-09-11T07:38:49.714Z,16.82
2022-09-11T07:41:19.285Z,16.80
2022-09-11T07:43:45.699Z,16.84
2022-09-11T07:46:12.887Z,16.81
2022-09-11T07:48:40.734Z,16.84
2022-09-11T07:51:08.885Z,16.90
2022-09-11T07:53:46.257Z,16.88
2022-09-11T07:56:18.496Z,16.92
2022-09-11T07:58:45.406Z,17.07
2022-09-11T08:01:19.806Z,17.18
2022-09-11T08:03:46.714Z,17.28
2022-09-11T08:06:21.377Z,17.30
2022-09-11T08:08:52.362Z,17.43
2022-09-11T08:11:19.702Z,17.47
2022-09-11T08:13:53.496Z,17.53
2022-09-11T08:16:21.442Z,17.65
2022-09-11T08:18:48.169Z,17.67
2022-09-11T08:21:15.316Z,17.75
2022-09-11T08:23:43.374Z,17.82
2022-09-11T08:26:12.797Z,17.93
2022-09-11T08:28:40.100Z,17.95
2022-09-11T08:31:06.939Z,18.03
2022-09-11T08:33:33.551Z,18.09
2022-09-11T08:36:02.109Z,18.18
2022-09-11T08:38:28.929Z,18.21
2022-09-11T08:40:57.444Z,18.29
2022-09-11T08:43:27.560Z,18.27
2022-09-11T08:45:58.894Z,18.26
2022-09-11T08:48:31.760Z,18.30
2022-09-11T08:50:58.310Z,18.40
2022-09-11T08:53:33.312Z,18.35
2022-09-11T08:56:03.365Z,18.46
2022-09-11T08:59:06.932Z,18.49
2022-09-11T09:01:47.123Z,18.54
2022-09-11T09:04:26.128Z,18.55
2022-09-11T09:07:11.186Z,18.50
2022-09-11T09:09:56.387Z,18.58
2022-09-11T09:12:32.345Z,18.67
2022-09-11T09:15:17.087Z,18.65
2022-09-11T09:17:48.011Z,18.69
2022-09-11T09:20:30.112Z,18.73
2022-09-11T09:23:00.696Z,18.79
2022-09-11T09:25:27.697Z,18.83
2022-09-11T09:28:00.290Z,18.91
2022-09-11T09:30:28.536Z,19.00
2022-09-11T09:33:18.411Z,19.02
2022-09-11T09:35:45.162Z,19.08
2022-09-11T09:38:13.993Z,19.16
2022-09-11T09:40:52.532Z,19.11
2022-09-11T09:43:32.049Z,19.20
2022-09-11T09:46:11.416Z,19.21
2022-09-11T09:48:39.291Z,19.19
2022-09-11T09:51:06.097Z,19.27
2022-09-11T09:53:37.659Z,19.30
2022-09-11T09:56:05.455Z,19.32
2022-09-11T09:58:34.748Z,19.29
2022-09-11T10:01:01.284Z,19.34
2022-09-11T10:03:27.870Z,19.37
2022-09-11T10:05:55.951Z,19.40
2022-09-11T10:08:29.722Z,19.42
2022-09-11T10:11:07.362Z,19.51
2022-09-11T10:13:37.362Z,19.60
2022-09-11T10:16:05.755Z,19.68
2022-09-11T10:18:37.558Z,19.67
2022-09-11T10:21:13.040Z,19.78
2022-09-11T10:23:52.976Z,19.86
2022-09-11T10:26:28.210Z,19.90
2022-09-11T10:28:58.633Z,19.92
2022-09-11T10:31:26.228Z,19.95
2022-09-11T10:33:55.514Z,20.07
2022-09-11T10:36:27.436Z,20.15
2022-09-11T10:38:54.573Z,20.24
2022-09-11T10:41:22.977Z,20.23
2022-09-11T10:44:00.486Z,20.35
2022-09-11T10:46:39.847Z,20.39
2022-09-11T10:49:06.176Z,20.38
2022-09-11T10:51:35.183Z,20.34
2022-09-11T10:54:22.712Z,20.41
2022-09-11T10:56:54.995Z,20.38
2022-09-11T10:59:24.406Z,20.35
2022-09-11T11:01:51.332Z,20.40
2022-09-11T11:04:17.832Z,20.49
2022-09-11T11:06:56.781Z,20.37
2022-09-11T11:09:41.901Z,20.38
2022-09-11T11:12:24.466Z,20.56
2022-09-11T11:15:18.495Z,20.57
2022-09-11T11:18:11.825Z,20.65
2022-09-11T11:20:51.276Z,20.69
2022-09-11T11:23:33.297Z,20.74
2022-09-11T11:26:22.228Z,20.78
2022-09-11T11:29:20.567Z,20.75
2022-09-11T11:32:08.464Z,20.81
2022-09-11T11:35:04.606Z,20.81
2022-09-11T11:37:34.604Z,20.97
2022-09-11T11:40:09.092Z,21.09
2022-09-11T11:42:38.833Z,21.16
2022-09-11T11:45:10.038Z,21.27
2022-09-11T11:47:38.480Z,21.29
2022-09-11T11:50:08.637Z,21.21
2022-09-11T11:52:42.593Z,21.32
2022-09-11T11:55:21.011Z,21.55
2022-09-11T11:58:13.027Z,21.62
2022-09-11T12:00:44.277Z,21.61
2022-09-11T12:03:34.403Z,21.64
2022-09-11T12:06:01.012Z,21.64
2022-09-11T12:08:27.581Z,21.62
2022-09-11T12:10:57.498Z,21.61
2022-09-11T12:13:32.498Z,21.64
2022-09-11T12:16:32.682Z,21.69
2022-09-11T12:19:15.252Z,21.62
2022-09-11T12:22:02.521Z,21.54
2022-09-11T12:24:54.924Z,21.59
2022-09-11T12:27:31.869Z,21.61
2022-09-11T12:30:08.541Z,21.54
2022-09-11T12:32:43.924Z,21.59
2022-09-11T12:35:29.031Z,21.57
2022-09-11T12:38:08.872Z,21.64
2022-09-11T12:40:40.342Z,21.63
2022-09-11T12:43:18.776Z,21.63
2022-09-11T12:45:48.161Z,21.67
2022-09-11T12:48:16.726Z,21.67
2022-09-11T12:51:19.302Z,21.61
2022-09-11T12:53:50.290Z,21.66
2022-09-11T12:56:19.389Z,21.63
2022-09-11T12:58:49.665Z,21.59
2022-09-11T13:01:21.436Z,21.66
2022-09-11T13:03:53.359Z,21.66
2022-09-11T13:06:20.332Z,21.73
2022-09-11T13:08:50.410Z,21.76
2022-09-11T13:11:42.755Z,21.84
2022-09-11T13:14:27.720Z,21.87
2022-09-11T13:16:58.383Z,21.90
2022-09-11T13:19:33.974Z,21.94
2022-09-11T13:22:01.765Z,21.94
2022-09-11T13:24:30.285Z,22.08
2022-09-11T13:27:21.054Z,22.16
2022-09-11T13:29:48.216Z,22.03
2022-09-11T13:32:15.345Z,22.07
2022-09-11T13:34:47.419Z,22.08
2022-09-11T13:37:21.301Z,22.03
2022-09-11T13:39:47.800Z,21.89
2022-09-11T13:42:18.066Z,21.95
2022-09-11T13:44:47.028Z,21.96
2022-09-11T13:47:20.140Z,22.06
2022-09-11T13:49:46.865Z,22.10
2022-09-11T13:52:14.037Z,22.07
2022-09-11T13:54:47.592Z,22.12
2022-09-11T13:57:25.268Z,21.98
2022-09-11T13:59:57.073Z,22.13
2022-09-11T14:02:37.171Z,22.16
2022-09-11T14:05:22.655Z,22.27
2022-09-11T14:08:04.787Z,22.33
2022-09-11T14:10:47.008Z,22.26
2022-09-11T14:13:42.611Z,22.14
2022-09-11T14:16:15.735Z,22.24
2022-09-11T14:18:53.774Z,22.26
2022-09-11T14:21:23.282Z,22.23
2022-09-11T14:23:54.918Z,22.25
2022-09-11T14:26:24.110Z,22.21
2022-09-11T14:28:58.148Z,22.17
2022-09-11T14:31:35.867Z,22.08
2022-09-11T14:34:10.965Z,22.05
2022-09-11T14:36:52.718Z,21.94
2022-09-11T14:39:27.460Z,21.91
2022-09-11T14:41:55.571Z,21.89
2022-09-11T14:44:22.232Z,21.80
2022-09-11T14:46:48.801Z,21.84
2022-09-11T14:49:15.544Z,21.74
2022-09-11T14:51:42.662Z,21.73
2022-09-11T14:54:15.726Z,21.74
2022-09-11T14:56:42.561Z,21.70
2022-09-11T14:59:09.301Z,21.66
2022-09-11T15:01:36.493Z,21.61
2022-09-11T15:04:03.152Z,21.63
2022-09-11T15:06:29.632Z,21.60
2022-09-11T15:08:56.284Z,21.64
2022-09-11T15:11:22.662Z,21.58
2022-09-11T15:14:13.486Z,21.66
2022-09-11T15:16:35.527Z,21.66
2022-09-11T15:19:01.913Z,21.75
2022-09-11T15:21:28.451Z,21.83
2022-09-11T15:23:55.161Z,21.83
2022-09-11T15:26:21.541Z,21.91
2022-09-11T15:28:50.842Z,21.79
2022-09-11T15:31:21.177Z,21.78
2022-09-11T15:33:51.643Z,21.75
2022-09-11T15:36:19.436Z,21.82
2022-09-11T15:38:54.013Z,21.79
2022-09-11T15:41:22.294Z,21.77
2022-09-11T15:43:50.542Z,21.87
2022-09-11T15:46:21.139Z,21.74
2022-09-11T15:48:48.860Z,21.82
2022-09-11T15:51:18.363Z,21.89
2022-09-11T15:53:44.929Z,21.85
2022-09-11T15:56:15.158Z,21.81
2022-09-11T15:58:44.385Z,21.73
2022-09-11T16:01:24.376Z,21.78
2022-09-11T16:03:56.630Z,21.72
2022-09-11T16:06:25.098Z,21.78
2022-09-11T16:08:53.859Z,21.80
2022-09-11T16:11:21.163Z,21.72
2022-09-11T16:13:52.061Z,21.82
2022-09-11T16:16:19.281Z,21.83
2022-09-11T16:18:46.100Z,21.79
2022-09-11T16:21:14.243Z,21.86
2022-09-11T16:23:41.050Z,21.85
2022-09-11T16:26:18.528Z,21.87
2022-09-11T16:28:46.002Z,21.84
2022-09-11T16:31:12.489Z,21.63
2022-09-11T16:33:40.982Z,21.67
2022-09-11T16:36:08.797Z,21.70
2022-09-11T16:38:37.804Z,21.66
2022-09-11T16:41:12.575Z,21.68
2022-09-11T16:43:40.627Z,21.67
2022-09-11T16:46:08.646Z,21.79
2022-09-11T16:48:37.007Z,22.76
2022-09-11T16:51:03.767Z,24.01
2022-09-11T16:53:34.199Z,25.03
2022-09-11T16:56:04.557Z,25.52
2022-09-11T16:58:30.988Z,25.99
2022-09-11T17:00:57.397Z,25.52
2022-09-11T17:03:23.893Z,24.85
2022-09-11T17:05:51.727Z,24.29
2022-09-11T17:08:18.482Z,23.89
2022-09-11T17:10:47.010Z,23.53
2022-09-11T17:13:13.399Z,23.19
2022-09-11T17:15:42.189Z,22.92
2022-09-11T17:18:11.616Z,22.61
2022-09-11T17:20:38.682Z,22.38
2022-09-11T17:23:06.614Z,22.15
2022-09-11T17:25:34.999Z,22.02
2022-09-11T17:28:02.658Z,21.89
2022-09-11T17:30:29.239Z,21.76
2022-09-11T17:32:57.308Z,21.67
2022-09-11T17:35:23.961Z,21.56
2022-09-11T17:37:51.023Z,21.48
2022-09-11T17:40:18.324Z,21.40
2022-09-11T17:42:46.515Z,21.32
2022-09-11T17:45:12.926Z,21.22
2022-09-11T17:47:40.854Z,21.16
2022-09-11T17:50:07.624Z,21.09
2022-09-11T17:52:34.938Z,21.03
2022-09-11T17:55:01.335Z,20.96
2022-09-11T17:57:28.303Z,20.88
2022-09-11T17:59:56.399Z,20.83
2022-09-11T18:02:23.543Z,20.77
2022-09-11T18:04:49.986Z,20.72
2022-09-11T18:07:17.098Z,20.65
2022-09-11T18:09:43.649Z,20.61
2022-09-11T18:12:10.166Z,20.56
2022-09-11T18:14:37.852Z,20.52
2022-09-11T18:17:04.329Z,20.47
2022-09-11T18:19:30.812Z,20.41
2022-09-11T18:21:57.649Z,20.36
2022-09-11T18:24:24.148Z,20.31
2022-09-11T18:26:53.531Z,20.24
2022-09-11T18:29:22.005Z,20.19
2022-09-11T18:31:51.764Z,20.13
2022-09-11T18:34:20.544Z,20.07
2022-09-11T18:36:47.443Z,20.02
2022-09-11T18:39:18.584Z,19.98
2022-09-11T18:41:46.215Z,19.94
2022-09-11T18:44:19.265Z,19.90
2022-09-11T18:46:46.238Z,19.85
2022-09-11T18:49:14.073Z,19.81
2022-09-11T18:51:42.117Z,19.78
2022-09-11T18:54:17.324Z,19.73
2022-09-11T18:56:44.456Z,19.66
2022-09-11T18:59:11.922Z,19.62
2022-09-11T19:01:39.738Z,19.57
2022-09-11T19:04:08.076Z,19.51
2022-09-11T19:06:34.531Z,19.47
2022-09-11T19:09:01.707Z,19.45
2022-09-11T19:11:29.825Z,19.42
2022-09-11T19:14:01.881Z,19.41
2022-09-11T19:16:28.319Z,19.39
2022-09-11T19:18:55.093Z,19.38
2022-09-11T19:21:23.127Z,19.34
2022-09-11T19:23:53.526Z,19.32
2022-09-11T19:26:25.333Z,19.26
2022-09-11T19:28:52.043Z,19.24
2022-09-11T19:31:21.397Z,19.22
2022-09-11T19:33:48.195Z,19.20
2022-09-11T19:36:20.567Z,19.17
2022-09-11T19:38:49.543Z,19.14
2022-09-11T19:41:18.621Z,19.13
2022-09-11T19:43:45.610Z,19.10
2022-09-11T19:46:14.648Z,19.08
2022-09-11T19:48:41.550Z,19.06
2022-09-11T19:51:09.746Z,19.04
2022-09-11T19:53:37.110Z,19.05
2022-09-11T19:56:03.625Z,19.03
2022-09-11T19:58:30.465Z,19.03
2022-09-11T20:00:57.587Z,19.02
2022-09-11T20:03:24.497Z,19.00
2022-09-11T20:05:53.488Z,18.96
2022-09-11T20:08:20.445Z,18.93
2022-09-11T20:10:47.086Z,18.91
2022-09-11T20:13:13.472Z,18.89
2022-09-11T20:15:40.065Z,18.85
2022-09-11T20:18:07.762Z,18.81
2022-09-11T20:20:35.911Z,18.78
2022-09-11T20:23:02.455Z,18.73
2022-09-11T20:25:28.864Z,18.69
2022-09-11T20:27:55.275Z,18.62
2022-09-11T20:30:22.984Z,18.60
2022-09-11T20:32:49.383Z,18.57
2022-09-11T20:35:15.880Z,18.52
2022-09-11T20:37:42.273Z,18.49
2022-09-11T20:40:09.785Z,18.46
2022-09-11T20:42:36.213Z,18.41
2022-09-11T20:45:02.812Z,18.39
2022-09-11T20:47:29.230Z,18.33
2022-09-11T20:49:55.634Z,18.34
2022-09-11T20:52:22.051Z,18.31
2022-09-11T20:54:49.071Z,18.29
2022-09-11T20:57:15.662Z,18.29
2022-09-11T20:59:43.348Z,18.26
2022-09-11T21:02:11.008Z,18.23
2022-09-11T21:04:37.756Z,18.21
2022-09-11T21:07:04.198Z,18.21
2022-09-11T21:09:30.971Z,18.19
2022-09-11T21:11:57.494Z,18.18
2022-09-11T21:14:23.913Z,18.15
2022-09-11T21:16:52.338Z,18.14
2022-09-11T21:19:18.734Z,18.12
2022-09-11T21:21:45.165Z,18.09
2022-09-11T21:24:12.975Z,18.06
2022-09-11T21:26:40.210Z,18.03
2022-09-11T21:29:08.585Z,17.98
2022-09-11T21:31:35.614Z,17.97
2022-09-11T21:34:02.148Z,17.94
2022-09-11T21:36:28.542Z,17.91
2022-09-11T21:38:54.929Z,17.87
2022-09-11T21:41:21.426Z,17.87
2022-09-11T21:43:47.869Z,17.84
2022-09-11T21:46:14.327Z,17.82
2022-09-11T21:48:41.473Z,17.77
2022-09-11T21:51:14.275Z,17.74
2022-09-11T21:53:42.734Z,17.71
2022-09-11T21:56:20.468Z,17.68
2022-09-11T21:58:48.314Z,17.65
2022-09-11T22:01:15.227Z,17.63
2022-09-11T22:03:41.914Z,17.57
2022-09-11T22:06:10.211Z,17.50
2022-09-11T22:08:41.159Z,17.46
2022-09-11T22:11:07.565Z,17.42
2022-09-11T22:13:35.397Z,17.38
2022-09-11T22:16:05.771Z,17.34
2022-09-11T22:18:32.216Z,17.31
2022-09-11T22:21:01.160Z,17.29
2022-09-11T22:23:29.142Z,17.25
2022-09-11T22:26:07.368Z,17.21
2022-09-11T22:28:34.180Z,17.18
2022-09-11T22:31:00.648Z,17.17
2022-09-11T22:33:27.085Z,17.15
2022-09-11T22:35:53.496Z,17.13
2022-09-11T22:38:19.889Z,17.10
2022-09-11T22:40:52.293Z,17.08
2022-09-11T22:43:18.705Z,17.07
2022-09-11T22:45:52.205Z,17.07
2022-09-11T22:48:18.762Z,17.06
2022-09-11T22:50:45.228Z,17.04
2022-09-11T22:53:11.714Z,17.00
2022-09-11T22:55:42.851Z,16.98
2022-09-11T22:58:09.251Z,16.96
2022-09-11T23:00:35.661Z,16.93
2022-09-11T23:03:02.156Z,16.91
2022-09-11T23:05:47.015Z,16.86
2022-09-11T23:08:13.409Z,16.82
2022-09-11T23:10:43.869Z,16.80
2022-09-11T23:13:10.379Z,16.80
2022-09-11T23:15:36.771Z,16.81
2022-09-11T23:18:03.724Z,16.80
2022-09-11T23:20:30.514Z,16.78
2022-09-11T23:22:57.207Z,16.75
2022-09-11T23:25:25.054Z,16.74
2022-09-11T23:27:53.504Z,16.73
2022-09-11T23:30:20.254Z,16.71
2022-09-11T23:32:46.741Z,16.70
2022-09-11T23:35:13.129Z,16.66
2022-09-11T23:37:43.502Z,16.64
2022-09-11T23:40:11.697Z,16.61
2022-09-11T23:42:38.122Z,16.59
2022-09-11T23:45:04.668Z,16.58
2022-09-11T23:47:31.061Z,16.58
2022-09-11T23:49:57.746Z,16.57
2022-09-11T23:52:24.157Z,16.53
2022-09-11T23:54:50.634Z,16.49
2022-09-11T23:57:17.067Z,16.48
2022-09-11T23:59:43.448Z,16.47
